createdAt,value
2022-10-09T00:01:05.699Z,11.01
2022-10-09T00:02:07.688Z,11.00
2022-10-09T00:03:10.351Z,10.99
2022-10-09T00:04:11.964Z,10.98
2022-10-09T00:05:14.866Z,10.96
2022-10-09T00:06:19.329Z,10.95
2022-10-09T00:07:21.028Z,10.96
2022-10-09T00:08:23.566Z,10.95
2022-10-09T00:09:26.267Z,10.94
2022-10-09T00:10:28.963Z,10.94
2022-10-09T00:11:33.879Z,10.93
2022-10-09T00:12:35.369Z,10.93
2022-10-09T00:13:38.548Z,10.92
2022-10-09T00:14:40.217Z,10.91
2022-10-09T00:15:46.344Z,10.91
2022-10-09T00:16:47.900Z,10.91
2022-10-09T00:17:50.860Z,10.91
2022-10-09T00:18:52.985Z,10.90
2022-10-09T00:19:55.492Z,10.90
2022-10-09T00:20:57.333Z,10.88
2022-10-09T00:21:59.822Z,10.89
2022-10-09T00:23:01.452Z,10.88
2022-10-09T00:24:05.689Z,10.87
2022-10-09T00:25:07.862Z,10.86
2022-10-09T00:26:12.002Z,10.85
2022-10-09T00:27:13.559Z,10.85
2022-10-09T00:28:16.187Z,10.85
2022-10-09T00:29:17.758Z,10.84
2022-10-09T00:30:20.372Z,10.83
2022-10-09T00:31:23.755Z,10.83
2022-10-09T00:32:26.284Z,10.83
2022-10-09T00:33:27.800Z,10.83
2022-10-09T00:34:30.687Z,10.82
2022-10-09T00:35:33.023Z,10.83
2022-10-09T00:36:35.552Z,10.83
2022-10-09T00:37:37.045Z,10.83
2022-10-09T00:38:39.658Z,10.84
2022-10-09T00:39:41.194Z,10.83
2022-10-09T00:40:44.047Z,10.83
2022-10-09T00:41:45.617Z,10.82
2022-10-09T00:42:48.921Z,10.82
2022-10-09T00:43:53.247Z,10.81
2022-10-09T00:44:59.868Z,10.81
2022-10-09T00:46:01.796Z,10.81
2022-10-09T00:47:05.735Z,10.80
2022-10-09T00:48:08.024Z,10.79
2022-10-09T00:49:23.319Z,10.79
2022-10-09T00:50:30.695Z,10.80
2022-10-09T00:51:35.134Z,10.77
2022-10-09T00:52:36.782Z,10.76
2022-10-09T00:53:39.563Z,10.75
2022-10-09T00:54:42.451Z,10.73
2022-10-09T01:00:52.780Z,10.73
2022-10-09T01:01:54.617Z,10.72
2022-10-09T01:02:58.515Z,10.72
2022-10-09T01:04:00.128Z,10.71
2022-10-09T01:05:02.771Z,10.71
2022-10-09T01:06:15.734Z,10.70
2022-10-09T01:07:32.535Z,10.69
2022-10-09T01:08:39.262Z,10.67
2022-10-09T01:09:47.829Z,10.65
2022-10-09T01:10:58.854Z,10.64
2022-10-09T01:12:07.660Z,10.62
2022-10-09T01:13:20.171Z,10.62
2022-10-09T01:14:27.057Z,10.60
2022-10-09T01:15:35.435Z,10.60
2022-10-09T01:16:42.347Z,10.57
2022-10-09T01:17:51.173Z,10.56
2022-10-09T01:19:02.293Z,10.53
2022-10-09T01:20:22.229Z,10.51
2022-10-09T01:21:30.478Z,10.51
2022-10-09T01:22:45.753Z,10.48
2022-10-09T01:24:00.163Z,10.46
2022-10-09T01:25:06.084Z,10.44
2022-10-09T01:26:40.516Z,10.42
2022-10-09T01:27:43.599Z,10.41
2022-10-09T01:28:50.004Z,10.40
2022-10-09T01:29:55.800Z,10.38
2022-10-09T01:31:01.135Z,10.37
2022-10-09T01:32:05.430Z,10.37
2022-10-09T01:33:08.388Z,10.36
2022-10-09T01:34:12.177Z,10.35
2022-10-09T01:35:16.157Z,10.35
2022-10-09T01:36:19.405Z,10.36
2022-10-09T01:37:23.367Z,10.36
2022-10-09T01:38:25.399Z,10.36
2022-10-09T01:39:29.678Z,10.35
2022-10-09T01:40:32.014Z,10.36
2022-10-09T01:41:34.918Z,10.35
2022-10-09T01:42:37.321Z,10.34
2022-10-09T01:43:41.478Z,10.34
2022-10-09T01:44:43.017Z,10.34
2022-10-09T01:51:07.561Z,10.34
2022-10-09T01:52:22.011Z,10.33
2022-10-09T01:53:25.344Z,10.30
2022-10-09T01:54:35.063Z,10.31
2022-10-09T01:55:42.561Z,10.31
2022-10-09T01:56:48.656Z,10.30
2022-10-09T01:57:56.551Z,10.29
2022-10-09T01:59:02.183Z,10.29
2022-10-09T02:00:09.280Z,10.29
2022-10-09T02:01:16.799Z,10.29
2022-10-09T02:02:20.365Z,10.30
2022-10-09T02:03:24.292Z,10.29
2022-10-09T02:04:29.132Z,10.28
2022-10-09T02:05:32.003Z,10.28
2022-10-09T02:06:36.351Z,10.28
2022-10-09T02:07:38.389Z,10.27
2022-10-09T02:08:42.741Z,10.25
2022-10-09T02:09:45.739Z,10.23
2022-10-09T02:10:52.356Z,10.24
2022-10-09T02:11:57.493Z,10.23
2022-10-09T02:13:01.225Z,10.23
2022-10-09T02:14:04.204Z,10.23
2022-10-09T02:15:09.483Z,10.24
2022-10-09T02:16:17.356Z,10.23
2022-10-09T02:17:26.759Z,10.24
2022-10-09T02:18:33.519Z,10.22
2022-10-09T02:19:40.714Z,10.22
2022-10-09T02:20:47.064Z,10.22
2022-10-09T02:21:56.303Z,10.23
2022-10-09T02:23:00.361Z,10.22
2022-10-09T02:24:05.015Z,10.22
2022-10-09T02:25:07.351Z,10.23
2022-10-09T02:26:11.306Z,10.22
2022-10-09T02:27:13.883Z,10.22
2022-10-09T02:28:16.419Z,10.22
2022-10-09T02:29:19.658Z,10.22
2022-10-09T02:30:22.704Z,10.21
2022-10-09T02:31:27.319Z,10.21
2022-10-09T02:32:30.324Z,10.21
2022-10-09T02:33:32.373Z,10.22
2022-10-09T02:34:35.032Z,10.21
2022-10-09T02:35:38.292Z,10.21
2022-10-09T02:36:41.037Z,10.20
2022-10-09T02:37:42.565Z,10.18
2022-10-09T02:38:45.067Z,10.16
2022-10-09T02:39:46.607Z,10.16
2022-10-09T02:40:49.056Z,10.15
2022-10-09T02:41:50.596Z,10.13
2022-10-09T02:42:53.075Z,10.13
2022-10-09T02:43:55.275Z,10.13
2022-10-09T02:44:59.231Z,10.12
2022-10-09T02:46:00.751Z,10.12
2022-10-09T02:47:03.416Z,10.12
2022-10-09T02:48:04.976Z,10.11
2022-10-09T02:49:07.960Z,10.11
2022-10-09T02:50:09.926Z,10.11
2022-10-09T02:51:12.416Z,10.10
2022-10-09T02:52:14.024Z,10.08
2022-10-09T02:53:16.697Z,10.09
2022-10-09T02:54:18.220Z,10.07
2022-10-09T02:55:20.747Z,10.05
2022-10-09T02:56:22.681Z,10.05
2022-10-09T02:57:25.201Z,10.04
2022-10-09T02:58:26.741Z,10.04
2022-10-09T02:59:29.206Z,10.02
2022-10-09T03:00:32.094Z,10.01
2022-10-09T03:01:34.904Z,10.01
2022-10-09T03:02:36.604Z,10.01
2022-10-09T03:03:39.187Z,9.99
2022-10-09T03:04:40.738Z,10.00
2022-10-09T03:05:43.289Z,9.98
2022-10-09T03:06:44.852Z,9.98
2022-10-09T03:07:51.419Z,9.98
2022-10-09T03:08:53.580Z,9.99
2022-10-09T03:09:57.142Z,9.98
2022-10-09T03:15:41.933Z,9.98
2022-10-09T03:16:45.634Z,9.95
2022-10-09T03:17:47.209Z,9.94
2022-10-09T03:18:50.658Z,9.93
2022-10-09T03:19:53.638Z,9.92
2022-10-09T03:20:56.196Z,9.91
2022-10-09T03:21:57.720Z,9.91
2022-10-09T03:23:00.179Z,9.92
2022-10-09T03:24:01.727Z,9.90
2022-10-09T03:25:04.432Z,9.90
2022-10-09T03:26:08.052Z,9.90
2022-10-09T03:27:10.496Z,9.89
2022-10-09T03:28:12.070Z,9.88
2022-10-09T03:29:14.600Z,9.89
2022-10-09T03:30:16.205Z,9.88
2022-10-09T03:31:49.980Z,9.88
2022-10-09T03:32:44.765Z,9.90
2022-10-09T03:33:47.266Z,9.89
2022-10-09T03:34:49.732Z,9.89
2022-10-09T03:35:51.277Z,9.90
2022-10-09T03:36:53.760Z,9.89
2022-10-09T03:37:55.275Z,9.89
2022-10-09T03:38:57.737Z,9.90
2022-10-09T03:39:59.325Z,9.88
2022-10-09T03:41:04.094Z,9.88
2022-10-09T03:42:06.150Z,9.87
2022-10-09T03:43:09.008Z,9.87
2022-10-09T03:44:10.542Z,9.86
2022-10-09T03:45:13.471Z,9.84
2022-10-09T03:46:15.075Z,9.83
2022-10-09T03:47:19.299Z,9.82
2022-10-09T03:48:20.927Z,9.81
2022-10-09T03:49:23.503Z,9.81
2022-10-09T03:50:25.168Z,9.79
2022-10-09T03:51:27.624Z,9.79
2022-10-09T03:52:29.127Z,9.78
2022-10-09T03:53:31.685Z,9.78
2022-10-09T03:54:33.289Z,9.77
2022-10-09T03:55:36.607Z,9.75
2022-10-09T03:56:38.109Z,9.74
2022-10-09T03:57:40.694Z,9.74
2022-10-09T03:58:42.194Z,9.74
2022-10-09T03:59:44.677Z,9.73
2022-10-09T04:00:46.561Z,9.73
2022-10-09T04:01:49.153Z,9.73
2022-10-09T04:02:52.624Z,9.73
2022-10-09T04:03:55.392Z,9.72
2022-10-09T04:04:56.912Z,9.72
2022-10-09T04:05:59.390Z,9.71
2022-10-09T04:07:00.927Z,9.70
2022-10-09T04:08:03.658Z,9.71
2022-10-09T04:09:05.330Z,9.70
2022-10-09T04:10:08.469Z,9.70
2022-10-09T04:11:09.971Z,9.70
2022-10-09T04:12:16.641Z,9.68
2022-10-09T04:13:18.135Z,9.68
2022-10-09T04:14:20.584Z,9.68
2022-10-09T04:15:23.103Z,9.68
2022-10-09T04:16:25.705Z,9.68
2022-10-09T04:17:27.338Z,9.67
2022-10-09T04:18:31.674Z,9.66
2022-10-09T04:19:33.264Z,9.66
2022-10-09T04:20:36.154Z,9.65
2022-10-09T04:21:37.730Z,9.64
2022-10-09T04:22:40.209Z,9.64
2022-10-09T04:23:42.162Z,9.63
2022-10-09T04:24:44.726Z,9.63
2022-10-09T04:25:46.825Z,9.61
2022-10-09T04:26:49.840Z,9.61
2022-10-09T04:27:51.389Z,9.60
2022-10-09T04:28:53.838Z,9.60
2022-10-09T04:29:55.409Z,9.59
2022-10-09T04:30:58.970Z,9.57
2022-10-09T04:32:00.661Z,9.56
2022-10-09T04:33:03.159Z,9.57
2022-10-09T04:34:06.329Z,9.54
2022-10-09T04:35:09.696Z,9.53
2022-10-09T04:36:11.206Z,9.53
2022-10-09T04:37:13.872Z,9.51
2022-10-09T04:38:15.418Z,9.50
2022-10-09T04:39:18.005Z,9.51
2022-10-09T04:40:19.577Z,9.49
2022-10-09T04:41:22.097Z,9.49
2022-10-09T04:42:23.632Z,9.48
2022-10-09T04:43:26.262Z,9.47
2022-10-09T04:44:27.813Z,9.48
2022-10-09T04:45:33.141Z,9.47
2022-10-09T04:46:36.334Z,9.46
2022-10-09T04:47:38.856Z,9.44
2022-10-09T04:48:41.737Z,9.42
2022-10-09T04:49:45.818Z,9.43
2022-10-09T04:50:47.341Z,9.42
2022-10-09T04:51:49.891Z,9.42
2022-10-09T04:52:51.703Z,9.41
2022-10-09T04:54:00.413Z,9.42
2022-10-09T04:55:02.317Z,9.39
2022-10-09T04:56:05.816Z,9.38
2022-10-09T04:57:07.369Z,9.38
2022-10-09T04:58:10.807Z,9.37
2022-10-09T04:59:13.549Z,9.36
2022-10-09T05:00:15.498Z,9.35
2022-10-09T05:01:25.890Z,9.33
2022-10-09T05:02:27.618Z,9.34
2022-10-09T05:03:30.140Z,9.32
2022-10-09T05:04:32.014Z,9.32
2022-10-09T05:05:35.834Z,9.32
2022-10-09T05:06:37.349Z,9.31
2022-10-09T05:07:39.839Z,9.31
2022-10-09T05:08:42.342Z,9.30
2022-10-09T05:09:44.831Z,9.29
2022-10-09T05:10:46.373Z,9.28
2022-10-09T05:11:49.155Z,9.28
2022-10-09T05:12:51.067Z,9.27
2022-10-09T05:13:56.587Z,9.27
2022-10-09T05:14:58.197Z,9.27
2022-10-09T05:16:02.989Z,9.26
2022-10-09T05:17:23.270Z,9.25
2022-10-09T05:18:26.378Z,9.25
2022-10-09T05:19:28.259Z,9.25
2022-10-09T05:20:30.755Z,9.24
2022-10-09T05:26:17.310Z,9.22
2022-10-09T05:27:18.839Z,9.21
2022-10-09T05:28:21.357Z,9.23
2022-10-09T05:29:23.874Z,9.22
2022-10-09T05:30:25.481Z,9.21
2022-10-09T05:31:29.496Z,9.21
2022-10-09T05:32:31.146Z,9.21
2022-10-09T05:33:34.105Z,9.22
2022-10-09T05:34:35.972Z,9.21
2022-10-09T05:35:38.753Z,9.21
2022-10-09T05:36:40.294Z,9.20
2022-10-09T05:37:45.467Z,9.20
2022-10-09T05:38:47.357Z,9.19
2022-10-09T05:39:49.880Z,9.20
2022-10-09T05:40:52.432Z,9.21
2022-10-09T05:41:56.514Z,9.22
2022-10-09T05:42:58.031Z,9.20
2022-10-09T05:44:02.935Z,9.20
2022-10-09T05:45:05.302Z,9.20
2022-10-09T05:46:09.593Z,9.19
2022-10-09T05:47:13.456Z,9.19
2022-10-09T05:48:16.107Z,9.19
2022-10-09T05:49:17.792Z,9.19
2022-10-09T05:50:20.276Z,9.20
2022-10-09T05:56:32.317Z,9.18
2022-10-09T05:57:35.297Z,9.18
2022-10-09T05:58:37.777Z,9.18
2022-10-09T05:59:40.311Z,9.18
2022-10-09T06:00:41.850Z,9.18
2022-10-09T06:01:46.582Z,9.19
2022-10-09T06:02:49.521Z,9.19
2022-10-09T06:03:52.458Z,9.19
2022-10-09T06:04:54.935Z,9.21
2022-10-09T06:05:59.893Z,9.22
2022-10-09T06:07:02.374Z,9.23
2022-10-09T06:08:03.988Z,9.23
2022-10-09T06:09:07.867Z,9.24
2022-10-09T06:10:11.060Z,9.23
2022-10-09T06:11:14.627Z,9.24
2022-10-09T06:12:17.106Z,9.26
2022-10-09T06:13:19.950Z,9.27
2022-10-09T06:14:24.240Z,9.27
2022-10-09T06:15:25.791Z,9.28
2022-10-09T06:16:30.278Z,9.28
2022-10-09T06:17:32.744Z,9.30
2022-10-09T06:18:35.418Z,9.30
2022-10-09T06:19:37.953Z,9.31
2022-10-09T06:20:39.693Z,9.30
2022-10-09T06:21:42.693Z,9.31
2022-10-09T06:22:44.225Z,9.32
2022-10-09T06:23:50.912Z,9.35
2022-10-09T06:24:52.432Z,9.36
2022-10-09T06:25:55.672Z,9.35
2022-10-09T06:26:57.901Z,9.37
2022-10-09T06:28:01.106Z,9.37
2022-10-09T06:29:03.999Z,9.37
2022-10-09T06:30:07.405Z,9.39
2022-10-09T06:31:11.614Z,9.38
2022-10-09T06:32:14.178Z,9.40
2022-10-09T06:33:16.333Z,9.42
2022-10-09T06:34:19.987Z,9.43
2022-10-09T06:35:21.637Z,9.43
2022-10-09T06:41:31.601Z,9.48
2022-10-09T06:42:33.124Z,9.48
2022-10-09T06:43:35.835Z,9.49
2022-10-09T06:44:38.719Z,9.50
2022-10-09T06:45:41.225Z,9.52
2022-10-09T06:46:44.196Z,9.52
2022-10-09T06:47:46.699Z,9.53
2022-10-09T06:48:48.252Z,9.54
2022-10-09T06:49:50.723Z,9.57
2022-10-09T06:50:52.224Z,9.57
2022-10-09T06:51:54.736Z,9.58
2022-10-09T06:52:56.828Z,9.58
2022-10-09T06:54:01.789Z,9.61
2022-10-09T06:55:04.040Z,9.62
2022-10-09T06:56:07.031Z,9.62
2022-10-09T06:57:08.575Z,9.64
2022-10-09T06:58:11.057Z,9.66
2022-10-09T06:59:12.639Z,9.68
2022-10-09T07:00:16.910Z,9.70
2022-10-09T07:01:24.808Z,9.70
2022-10-09T07:02:27.348Z,9.73
2022-10-09T07:03:28.874Z,9.74
2022-10-09T07:04:31.527Z,9.74
2022-10-09T07:05:33.047Z,9.76
2022-10-09T07:11:36.433Z,9.84
2022-10-09T07:12:38.655Z,9.84
2022-10-09T07:13:41.629Z,9.87
2022-10-09T07:14:43.285Z,9.89
2022-10-09T07:15:47.304Z,9.90
2022-10-09T07:16:48.973Z,9.90
2022-10-09T07:17:51.649Z,9.93
2022-10-09T07:18:53.678Z,9.93
2022-10-09T07:19:56.130Z,9.96
2022-10-09T07:21:00.481Z,9.98
2022-10-09T07:22:03.153Z,9.99
2022-10-09T07:23:04.741Z,10.00
2022-10-09T07:24:08.130Z,10.01
2022-10-09T07:25:11.763Z,10.02
2022-10-09T07:26:16.213Z,10.03
2022-10-09T07:27:18.208Z,10.04
2022-10-09T07:28:20.731Z,10.05
2022-10-09T07:29:22.247Z,10.07
2022-10-09T07:30:24.770Z,10.08
2022-10-09T07:31:27.856Z,10.11
2022-10-09T07:32:30.388Z,10.13
2022-10-09T07:33:32.321Z,10.14
2022-10-09T07:34:34.841Z,10.16
2022-10-09T07:35:36.386Z,10.18
2022-10-09T07:36:38.978Z,10.19
2022-10-09T07:37:41.907Z,10.22
2022-10-09T07:38:43.648Z,10.23
2022-10-09T07:39:46.511Z,10.25
2022-10-09T07:40:48.135Z,10.27
2022-10-09T07:41:52.397Z,10.30
2022-10-09T07:42:54.481Z,10.31
2022-10-09T07:43:57.820Z,10.32
2022-10-09T07:44:59.318Z,10.34
2022-10-09T07:46:03.485Z,10.35
2022-10-09T07:47:06.640Z,10.37
2022-10-09T07:48:09.131Z,10.40
2022-10-09T07:49:10.713Z,10.41
2022-10-09T07:50:13.204Z,10.44
2022-10-09T07:51:17.282Z,10.45
2022-10-09T07:52:19.774Z,10.47
2022-10-09T07:53:21.781Z,10.49
2022-10-09T07:54:24.390Z,10.52
2022-10-09T07:55:25.909Z,10.55
2022-10-09T07:56:29.961Z,10.57
2022-10-09T07:57:31.492Z,10.59
2022-10-09T07:58:34.836Z,10.60
2022-10-09T07:59:37.303Z,10.63
2022-10-09T08:00:38.852Z,10.64
2022-10-09T08:01:41.766Z,10.67
2022-10-09T08:02:44.862Z,10.68
2022-10-09T08:03:47.526Z,10.71
2022-10-09T08:04:50.071Z,10.73
2022-10-09T08:05:54.348Z,10.76
2022-10-09T08:06:58.258Z,10.79
2022-10-09T08:07:59.942Z,10.81
2022-10-09T08:09:03.844Z,10.84
2022-10-09T08:10:06.117Z,10.85
2022-10-09T08:11:10.871Z,10.88
2022-10-09T08:12:12.894Z,10.89
2022-10-09T08:13:15.380Z,10.90
2022-10-09T08:14:19.641Z,10.92
2022-10-09T08:15:21.429Z,10.96
2022-10-09T08:16:25.211Z,10.98
2022-10-09T08:17:26.762Z,11.01
2022-10-09T08:18:30.626Z,11.03
2022-10-09T08:19:32.202Z,11.03
2022-10-09T08:20:34.733Z,11.05
2022-10-09T08:21:36.261Z,11.08
2022-10-09T08:22:38.745Z,11.09
2022-10-09T08:23:40.800Z,11.10
2022-10-09T08:24:43.292Z,11.13
2022-10-09T08:25:45.843Z,11.14
2022-10-09T08:26:48.409Z,11.16
2022-10-09T08:27:52.190Z,11.18
2022-10-09T08:28:56.833Z,11.19
2022-10-09T08:29:59.533Z,11.22
2022-10-09T08:31:09.347Z,11.24
2022-10-09T08:32:11.915Z,11.25
2022-10-09T08:33:13.563Z,11.27
2022-10-09T08:34:17.427Z,11.29
2022-10-09T08:35:19.028Z,11.32
2022-10-09T08:36:22.442Z,11.35
2022-10-09T08:37:23.956Z,11.35
2022-10-09T08:38:46.180Z,11.37
2022-10-09T08:39:49.004Z,11.39
2022-10-09T08:40:58.441Z,11.40
2022-10-09T08:42:03.252Z,11.43
2022-10-09T08:43:07.022Z,11.45
2022-10-09T08:44:16.162Z,11.46
2022-10-09T08:45:19.204Z,11.48
2022-10-09T08:46:27.074Z,11.52
2022-10-09T08:47:39.009Z,11.54
2022-10-09T08:48:45.564Z,11.57
2022-10-09T08:49:55.801Z,11.58
2022-10-09T08:50:58.952Z,11.62
2022-10-09T08:52:20.359Z,11.63
2022-10-09T08:53:31.008Z,11.65
2022-10-09T08:54:36.569Z,11.68
2022-10-09T08:55:44.345Z,11.70
2022-10-09T08:56:47.546Z,11.72
2022-10-09T08:57:52.395Z,11.75
2022-10-09T08:58:53.983Z,11.77
2022-10-09T08:59:57.427Z,11.79
2022-10-09T09:01:05.333Z,11.83
2022-10-09T09:02:29.893Z,11.85
2022-10-09T09:03:55.293Z,11.88
2022-10-09T09:05:08.762Z,11.89
2022-10-09T09:11:21.378Z,12.05
2022-10-09T09:12:33.779Z,12.09
2022-10-09T09:13:50.612Z,12.12
2022-10-09T09:15:09.502Z,12.15
2022-10-09T09:16:21.180Z,12.16
2022-10-09T09:17:26.965Z,12.18
2022-10-09T09:18:42.537Z,12.20
2022-10-09T09:19:54.781Z,12.25
2022-10-09T09:21:06.186Z,12.27
2022-10-09T09:22:12.179Z,12.29
2022-10-09T09:23:16.681Z,12.32
2022-10-09T09:24:21.172Z,12.35
2022-10-09T09:25:25.360Z,12.38
2022-10-09T09:26:27.516Z,12.40
2022-10-09T09:27:34.178Z,12.45
2022-10-09T09:28:39.546Z,12.48
2022-10-09T09:29:46.563Z,12.50
2022-10-09T09:30:55.652Z,12.53
2022-10-09T09:32:02.058Z,12.55
2022-10-09T09:33:14.242Z,12.57
2022-10-09T09:34:23.722Z,12.59
2022-10-09T09:35:32.440Z,12.63
2022-10-09T09:36:42.116Z,12.65
2022-10-09T09:37:43.638Z,12.67
2022-10-09T09:39:22.604Z,12.70
2022-10-09T09:45:33.953Z,12.86
2022-10-09T09:46:38.447Z,12.91
2022-10-09T09:47:45.286Z,12.95
2022-10-09T09:48:49.237Z,12.97
2022-10-09T09:49:56.110Z,13.01
2022-10-09T09:51:16.277Z,13.04
2022-10-09T09:52:29.547Z,13.07
2022-10-09T09:53:33.858Z,13.11
2022-10-09T09:54:36.411Z,13.14
2022-10-09T09:55:38.116Z,13.18
2022-10-09T09:57:10.231Z,13.21
2022-10-09T09:58:08.279Z,13.24
2022-10-09T09:59:26.861Z,13.27
2022-10-09T10:00:29.726Z,13.29
2022-10-09T10:01:32.645Z,13.32
2022-10-09T10:02:35.902Z,13.34
2022-10-09T10:03:50.323Z,13.36
2022-10-09T10:04:53.953Z,13.38
2022-10-09T10:05:57.177Z,13.40
2022-10-09T10:07:05.929Z,13.45
2022-10-09T10:08:25.814Z,13.47
2022-10-09T10:09:28.346Z,13.50
2022-10-09T10:10:30.242Z,13.54
2022-10-09T10:11:35.603Z,13.55
2022-10-09T10:12:41.530Z,13.57
2022-10-09T10:13:49.572Z,13.57
2022-10-09T10:14:51.606Z,13.59
2022-10-09T10:20:50.691Z,13.63
2022-10-09T10:21:57.221Z,13.64
2022-10-09T10:23:01.288Z,13.63
2022-10-09T10:24:08.912Z,13.67
2022-10-09T10:25:18.385Z,13.68
2022-10-09T10:26:26.014Z,13.72
2022-10-09T10:27:35.372Z,13.75
2022-10-09T10:28:47.849Z,13.77
2022-10-09T10:29:52.104Z,13.78
2022-10-09T10:31:00.214Z,13.81
2022-10-09T10:32:11.457Z,13.82
2022-10-09T10:33:19.448Z,13.82
2022-10-09T10:34:26.576Z,13.85
2022-10-09T10:35:33.715Z,13.88
2022-10-09T10:36:36.563Z,13.89
2022-10-09T10:37:46.143Z,13.92
2022-10-09T10:38:55.324Z,13.94
2022-10-09T10:40:14.166Z,13.96
2022-10-09T10:41:29.257Z,13.97
2022-10-09T10:42:41.709Z,13.98
2022-10-09T10:43:51.664Z,13.99
2022-10-09T10:45:00.583Z,14.01
2022-10-09T10:46:11.869Z,14.02
2022-10-09T10:47:22.747Z,14.03
2022-10-09T10:48:28.605Z,14.05
2022-10-09T10:49:33.949Z,14.06
2022-10-09T10:50:43.032Z,14.09
2022-10-09T10:51:58.955Z,14.10
2022-10-09T10:53:23.097Z,14.10
2022-10-09T10:54:39.811Z,14.10
2022-10-09T10:55:52.726Z,14.12
2022-10-09T10:57:01.780Z,14.13
2022-10-09T10:59:37.670Z,14.18
2022-10-09T11:00:43.881Z,14.21
2022-10-09T11:02:11.831Z,14.23
2022-10-09T11:03:34.968Z,14.24
2022-10-09T11:04:48.168Z,14.27
2022-10-09T11:05:55.878Z,14.28
2022-10-09T11:07:05.918Z,14.30
2022-10-09T11:08:29.134Z,14.32
2022-10-09T11:09:40.434Z,14.36
2022-10-09T11:21:02.459Z,14.53
2022-10-09T11:22:16.044Z,14.54
2022-10-09T11:23:32.640Z,14.57
2022-10-09T11:24:58.591Z,14.59
2022-10-09T11:26:09.042Z,14.62
2022-10-09T11:27:17.335Z,14.66
2022-10-09T11:28:25.666Z,14.68
2022-10-09T11:29:36.178Z,14.69
2022-10-09T11:30:42.735Z,14.70
2022-10-09T11:31:49.101Z,14.73
2022-10-09T11:32:58.603Z,14.75
2022-10-09T11:34:07.114Z,14.77
2022-10-09T11:35:19.503Z,14.79
2022-10-09T11:36:28.461Z,14.80
2022-10-09T11:37:35.635Z,14.81
2022-10-09T11:38:43.408Z,14.83
2022-10-09T11:39:45.698Z,14.86
2022-10-09T11:40:49.166Z,14.88
2022-10-09T11:41:53.630Z,14.91
2022-10-09T11:43:00.392Z,14.94
2022-10-09T11:44:22.301Z,14.96
2022-10-09T11:45:30.713Z,14.98
2022-10-09T11:46:42.488Z,15.01
2022-10-09T11:47:54.547Z,15.04
2022-10-09T11:49:09.820Z,15.05
2022-10-09T11:50:35.755Z,15.06
2022-10-09T11:51:47.937Z,15.09
2022-10-09T11:52:58.465Z,15.10
2022-10-09T11:54:00.799Z,15.13
2022-10-09T11:55:17.888Z,15.13
2022-10-09T11:56:25.082Z,15.14
2022-10-09T11:57:28.410Z,15.17
2022-10-09T11:58:30.963Z,15.18
2022-10-09T11:59:36.057Z,15.21
2022-10-09T12:00:38.907Z,15.23
2022-10-09T12:01:42.841Z,15.23
2022-10-09T12:02:45.528Z,15.24
2022-10-09T12:03:47.478Z,15.25
2022-10-09T12:04:54.883Z,15.27
2022-10-09T12:06:07.442Z,15.26
2022-10-09T12:07:13.062Z,15.27
2022-10-09T12:08:19.537Z,15.28
2022-10-09T12:09:26.563Z,15.31
2022-10-09T12:10:33.411Z,15.32
2022-10-09T12:11:35.329Z,15.32
2022-10-09T12:12:38.759Z,15.35
2022-10-09T12:13:47.422Z,15.35
2022-10-09T12:14:51.632Z,15.39
2022-10-09T12:15:57.076Z,15.42
2022-10-09T12:17:00.311Z,15.44
2022-10-09T12:18:14.028Z,15.47
2022-10-09T12:19:19.722Z,15.50
2022-10-09T12:20:25.183Z,15.51
2022-10-09T12:21:32.523Z,15.52
2022-10-09T12:22:41.405Z,15.54
2022-10-09T12:23:46.668Z,15.55
2022-10-09T12:24:52.466Z,15.57
2022-10-09T12:25:55.336Z,15.57
2022-10-09T12:27:02.993Z,15.59
2022-10-09T12:28:06.655Z,15.60
2022-10-09T12:29:20.823Z,15.60
2022-10-09T12:30:30.083Z,15.61
2022-10-09T12:31:35.391Z,15.63
2022-10-09T12:32:40.535Z,15.65
2022-10-09T12:33:46.632Z,15.67
2022-10-09T12:34:51.725Z,15.71
2022-10-09T12:36:05.102Z,15.73
2022-10-09T12:37:12.763Z,15.74
2022-10-09T12:38:25.377Z,15.76
2022-10-09T12:39:27.859Z,15.78
2022-10-09T12:40:32.373Z,15.81
2022-10-09T12:41:36.061Z,15.84
2022-10-09T12:42:38.593Z,15.86
2022-10-09T12:43:48.687Z,15.86
2022-10-09T12:44:53.828Z,15.86
2022-10-09T12:45:55.782Z,15.86
2022-10-09T12:47:02.696Z,15.85
2022-10-09T12:48:11.046Z,15.85
2022-10-09T12:49:20.334Z,15.85
2022-10-09T12:50:27.122Z,15.83
2022-10-09T12:51:32.108Z,15.85
2022-10-09T12:52:34.750Z,15.85
2022-10-09T12:53:46.782Z,15.85
2022-10-09T12:54:49.314Z,15.86
2022-10-09T12:55:53.187Z,15.88
2022-10-09T12:56:57.410Z,15.90
2022-10-09T12:58:03.360Z,15.91
2022-10-09T12:59:06.931Z,15.94
2022-10-09T13:00:15.319Z,15.95
2022-10-09T13:01:18.325Z,15.97
2022-10-09T13:02:22.083Z,15.99
2022-10-09T13:03:26.095Z,16.01
2022-10-09T13:04:31.603Z,16.02
2022-10-09T13:05:37.991Z,16.01
2022-10-09T13:06:45.589Z,16.04
2022-10-09T13:07:52.539Z,16.04
2022-10-09T13:08:59.574Z,16.06
2022-10-09T13:10:05.615Z,16.05
2022-10-09T13:11:12.956Z,16.08
2022-10-09T13:12:20.199Z,16.07
2022-10-09T13:13:27.660Z,16.08
2022-10-09T13:14:35.726Z,16.08
2022-10-09T13:15:38.274Z,16.09
2022-10-09T13:16:43.793Z,16.11
2022-10-09T13:17:46.680Z,16.12
2022-10-09T13:18:56.147Z,16.12
2022-10-09T13:20:00.433Z,16.13
2022-10-09T13:21:04.230Z,16.14
2022-10-09T13:22:20.233Z,16.18
2022-10-09T13:23:29.047Z,16.19
2022-10-09T13:24:32.917Z,16.20
2022-10-09T13:25:39.851Z,16.20
2022-10-09T13:26:43.765Z,16.21
2022-10-09T13:27:46.405Z,16.21
2022-10-09T13:28:48.215Z,16.22
2022-10-09T13:29:50.901Z,16.24
2022-10-09T13:30:53.491Z,16.24
2022-10-09T13:31:55.097Z,16.22
2022-10-09T13:32:58.057Z,16.23
2022-10-09T13:34:00.691Z,16.24
2022-10-09T13:35:03.174Z,16.24
2022-10-09T13:36:05.104Z,16.25
2022-10-09T13:37:07.685Z,16.28
2022-10-09T13:38:13.422Z,16.31
2022-10-09T13:39:16.036Z,16.31
2022-10-09T13:40:21.825Z,16.33
2022-10-09T13:41:24.795Z,16.35
2022-10-09T13:42:30.988Z,16.36
2022-10-09T13:43:33.126Z,16.37
2022-10-09T13:44:35.977Z,16.39
2022-10-09T13:45:37.597Z,16.39
2022-10-09T13:46:40.251Z,16.40
2022-10-09T13:47:41.894Z,16.42
2022-10-09T13:48:45.775Z,16.43
2022-10-09T13:49:47.505Z,16.44
2022-10-09T13:50:50.076Z,16.45
2022-10-09T13:51:51.574Z,16.46
2022-10-09T13:52:54.141Z,16.46
2022-10-09T13:53:55.725Z,16.46
2022-10-09T13:54:58.223Z,16.46
2022-10-09T13:56:01.417Z,16.46
2022-10-09T13:57:04.355Z,16.47
2022-10-09T13:58:06.106Z,16.47
2022-10-09T13:59:08.639Z,16.48
2022-10-09T14:00:11.448Z,16.48
2022-10-09T14:01:15.107Z,16.50
2022-10-09T14:02:16.710Z,16.50
2022-10-09T14:03:19.301Z,16.50
2022-10-09T14:04:21.292Z,16.50
2022-10-09T14:05:26.430Z,16.50
2022-10-09T14:06:28.035Z,16.51
2022-10-09T14:07:30.880Z,16.51
2022-10-09T14:08:32.419Z,16.51
2022-10-09T14:09:35.020Z,16.50
2022-10-09T14:10:41.824Z,16.50
2022-10-09T14:11:45.639Z,16.52
2022-10-09T14:12:47.388Z,16.52
2022-10-09T14:13:50.912Z,16.51
2022-10-09T14:14:54.127Z,16.53
2022-10-09T14:20:57.481Z,16.52
2022-10-09T14:21:59.019Z,16.52
2022-10-09T14:23:01.680Z,16.52
2022-10-09T14:24:03.624Z,16.53
2022-10-09T14:25:07.636Z,16.55
2022-10-09T14:26:09.779Z,16.57
2022-10-09T14:27:13.662Z,16.56
2022-10-09T14:28:15.285Z,16.56
2022-10-09T14:29:17.940Z,16.57
2022-10-09T14:30:19.494Z,16.58
2022-10-09T14:31:22.287Z,16.58
2022-10-09T14:32:24.774Z,16.57
2022-10-09T14:33:26.376Z,16.58
2022-10-09T14:34:28.913Z,16.59
2022-10-09T14:35:30.511Z,16.60
2022-10-09T14:36:33.195Z,16.60
2022-10-09T14:37:41.467Z,16.60
2022-10-09T14:38:44.583Z,16.60
2022-10-09T14:39:46.696Z,16.60
2022-10-09T14:45:44.769Z,16.56
2022-10-09T14:46:46.292Z,16.56
2022-10-09T14:47:49.113Z,16.56
2022-10-09T14:48:51.355Z,16.57
2022-10-09T14:49:54.008Z,16.56
2022-10-09T14:50:55.660Z,16.55
2022-10-09T14:51:58.125Z,16.56
2022-10-09T14:52:59.649Z,16.57
2022-10-09T14:54:02.489Z,16.57
2022-10-09T14:55:04.781Z,16.57
2022-10-09T14:56:11.001Z,16.58
2022-10-09T14:57:12.749Z,16.56
2022-10-09T14:58:15.234Z,16.56
2022-10-09T14:59:18.035Z,16.55
2022-10-09T15:00:20.781Z,16.54
2022-10-09T15:01:25.621Z,16.53
2022-10-09T15:02:27.113Z,16.53
2022-10-09T15:03:30.899Z,16.51
2022-10-09T15:04:33.615Z,16.51
2022-10-09T15:05:35.217Z,16.50
2022-10-09T15:06:37.773Z,16.49
2022-10-09T15:07:39.345Z,16.49
2022-10-09T15:08:43.245Z,16.48
2022-10-09T15:09:44.811Z,16.50
2022-10-09T15:10:47.274Z,16.49
2022-10-09T15:11:48.812Z,16.49
2022-10-09T15:12:51.274Z,16.48
2022-10-09T15:13:53.113Z,16.46
2022-10-09T15:14:55.588Z,16.45